KDEC/DEC METAR and TAF weather

Enter ICAO airport designator
Station Type Date Time Source
KDEC METAR 2021/01/27 11:54 UTC NOAA

KDEC 271154Z 04009KT 10SM OVC029 M02/M03 A3022 RMK AO2 SLP240 T10221028 11022 21039 50010


Station Type Date Time Source
KDEC Decoded METAR 2021/01/27 11:54 UTC NOAA

DECATUR AIRPORT, IL, United States (KDEC) 39-50N 88-52W 207M
Jan 27, 2021 - 06:54 AM EST / 2021.01.27 1154 UTC
Wind: from the NE (040 degrees) at 10 MPH (9 KT):0
Visibility: 10 mile(s):0
Sky conditions: overcast
Temperature: 28.0 F (-2.2 C)
Windchill: 19 F (-7 C):1
Dew Point: 27.0 F (-2.8 C)
Relative Humidity: 95%
Pressure (altimeter): 30.22 in. Hg (1023 hPa)
Pressure tendency: 0.03 inches (1.0 hPa) higher than three hours ago
ob: KDEC 271154Z 04009KT 10SM OVC029 M02/M03 A3022 RMK AO2 SLP240 T10221028 11022 21039 50010
cycle: 12

Station Type Date Time Source
KDEC TAF 2021/01/27 12:57 UTC NOAA

TAF KDEC 271151Z 2712/2812 04009KT P6SM OVC030
FM271600 03011KT P6SM VCSH OVC020
FM271800 36012KT 2SM -SN BR OVC012
FM272200 35010KT 5SM -SN BR OVC015
FM280000 34009KT P6SM BKN025
FM281000 33007KT P6SM SCT120

Example: see airport list